N12KBM KSNA-KLAX
Flight info
| Callsign | N12KBM |
|---|---|
| Flight time | 0h 19m |
| Altitude | VFR/035 |
| Route | |
| Aircraft | P28A/L-DOV/C |
Departure
| Time | 2026-05-04 02:41 |
|---|---|
| Airport | John Wayne Orange County International Airport (KSNA) |
Arrival
| Time | 2026-05-04 03:00 |
|---|---|
| Airport | Los Angeles International Airport (KLAX) |
| Time | Latitude | Longitude | Altitude | Speed | Heading |
|---|---|---|---|---|---|
| 2026-05-04 02:34 | 33.67360 | -117.86566 | 55 ft | 0 kts | 60° |
| 2026-05-04 02:36 | 33.67392 | -117.86552 | 54 ft | 0 kts | 304° |
| 2026-05-04 02:37 | 33.67399 | -117.86563 | 54 ft | 6 kts | 324° |
| 2026-05-04 02:37 | 33.67454 | -117.86582 | 55 ft | 17 kts | 337° |
| 2026-05-04 02:37 | 33.67550 | -117.86563 | 56 ft | 20 kts | 27° |
| 2026-05-04 02:37 | 33.67680 | -117.86487 | 53 ft | 21 kts | 27° |
| 2026-05-04 02:38 | 33.67810 | -117.86400 | 49 ft | 21 kts | 28° |
| 2026-05-04 02:38 | 33.67934 | -117.86322 | 48 ft | 20 kts | 19° |
| 2026-05-04 02:38 | 33.68045 | -117.86244 | 46 ft | 18 kts | 29° |
| 2026-05-04 02:38 | 33.68145 | -117.86188 | 47 ft | 15 kts | 29° |
| 2026-05-04 02:39 | 33.68181 | -117.86164 | 47 ft | 0 kts | 28° |
| 2026-05-04 02:39 | 33.68181 | -117.86161 | 47 ft | 1 kts | 122° |
| 2026-05-04 02:39 | 33.68172 | -117.86167 | 47 ft | 11 kts | 208° |
| 2026-05-04 02:39 | 33.68081 | -117.86230 | 46 ft | 13 kts | 219° |
| 2026-05-04 02:40 | 33.68058 | -117.86295 | 46 ft | 0 kts | 296° |
| 2026-05-04 02:40 | 33.68070 | -117.86327 | 46 ft | 14 kts | 292° |
| 2026-05-04 02:40 | 33.68042 | -117.86400 | 47 ft | 23 kts | 207° |
| 2026-05-04 02:40 | 33.67711 | -117.86607 | 56 ft | 81 kts | 210° |
| 2026-05-04 02:41 | 33.67179 | -117.86952 | 306 ft | 90 kts | 211° |
| 2026-05-04 02:41 | 33.66630 | -117.87354 | 556 ft | 99 kts | 213° |
| 2026-05-04 02:41 | 33.66008 | -117.87876 | 792 ft | 106 kts | 224° |
| 2026-05-04 02:41 | 33.65605 | -117.88558 | 1171 ft | 102 kts | 244° |
| 2026-05-04 02:42 | 33.65476 | -117.89343 | 1533 ft | 99 kts | 272° |
| 2026-05-04 02:42 | 33.65760 | -117.90147 | 1746 ft | 110 kts | 312° |
| 2026-05-04 02:42 | 33.66437 | -117.90653 | 1930 ft | 119 kts | 341° |
| 2026-05-04 02:42 | 33.67231 | -117.90940 | 2204 ft | 119 kts | 343° |
| 2026-05-04 02:43 | 33.68045 | -117.91182 | 2420 ft | 123 kts | 345° |
| 2026-05-04 02:43 | 33.68893 | -117.91426 | 2623 ft | 125 kts | 348° |
| 2026-05-04 02:43 | 33.69715 | -117.91688 | 2848 ft | 125 kts | 345° |
| 2026-05-04 02:43 | 33.70516 | -117.91962 | 3222 ft | 113 kts | 341° |
| 2026-05-04 02:44 | 33.71284 | -117.92262 | 3447 ft | 117 kts | 340° |
| 2026-05-04 02:44 | 33.72028 | -117.92608 | 3743 ft | 116 kts | 338° |
| 2026-05-04 02:44 | 33.72812 | -117.92964 | 3911 ft | 123 kts | 338° |
| 2026-05-04 02:44 | 33.73611 | -117.93310 | 4130 ft | 124 kts | 340° |
| 2026-05-04 02:45 | 33.74446 | -117.93627 | 4310 ft | 127 kts | 342° |
| 2026-05-04 02:45 | 33.75286 | -117.93910 | 4517 ft | 128 kts | 345° |
| 2026-05-04 02:45 | 33.76164 | -117.94239 | 4557 ft | 137 kts | 339° |
| 2026-05-04 02:45 | 33.77110 | -117.94683 | 4349 ft | 154 kts | 337° |
| 2026-05-04 02:46 | 33.77792 | -117.95024 | 4077 ft | 167 kts | 338° |
| 2026-05-04 02:46 | 33.78983 | -117.95213 | 3369 ft | 181 kts | 5° |
| 2026-05-04 02:46 | 33.80134 | -117.95420 | 2358 ft | 184 kts | 326° |
| 2026-05-04 02:46 | 33.81171 | -117.96143 | 2556 ft | 153 kts | 329° |
| 2026-05-04 02:47 | 33.82038 | -117.96770 | 2764 ft | 144 kts | 328° |
| 2026-05-04 02:47 | 33.82899 | -117.97401 | 2796 ft | 148 kts | 328° |
| 2026-05-04 02:47 | 33.83785 | -117.98098 | 2721 ft | 154 kts | 323° |
| 2026-05-04 02:47 | 33.84637 | -117.98851 | 2787 ft | 149 kts | 322° |
| 2026-05-04 02:48 | 33.85457 | -117.99610 | 2796 ft | 151 kts | 321° |
| 2026-05-04 02:48 | 33.86272 | -118.00400 | 2817 ft | 150 kts | 320° |
| 2026-05-04 02:48 | 33.87107 | -118.01201 | 2717 ft | 157 kts | 322° |
| 2026-05-04 02:48 | 33.87938 | -118.01986 | 2879 ft | 145 kts | 321° |
| 2026-05-04 02:49 | 33.88754 | -118.02745 | 2840 ft | 152 kts | 322° |
| 2026-05-04 02:49 | 33.89602 | -118.03481 | 2933 ft | 147 kts | 324° |
| 2026-05-04 02:49 | 33.90449 | -118.04153 | 3046 ft | 145 kts | 328° |
| 2026-05-04 02:49 | 33.91299 | -118.04779 | 3154 ft | 143 kts | 329° |
| 2026-05-04 02:50 | 33.92189 | -118.05378 | 3129 ft | 149 kts | 331° |
| 2026-05-04 02:50 | 33.93093 | -118.05953 | 3255 ft | 144 kts | 332° |
| 2026-05-04 02:50 | 33.93990 | -118.06512 | 3306 ft | 147 kts | 331° |
| 2026-05-04 02:50 | 33.94914 | -118.07110 | 3233 ft | 154 kts | 331° |
| 2026-05-04 02:51 | 33.95855 | -118.07713 | 3237 ft | 150 kts | 334° |
| 2026-05-04 02:51 | 33.96791 | -118.08245 | 3269 ft | 149 kts | 334° |
| 2026-05-04 02:51 | 33.97709 | -118.08745 | 3431 ft | 142 kts | 336° |
| 2026-05-04 02:51 | 33.98654 | -118.09135 | 3434 ft | 145 kts | 338° |
| 2026-05-04 02:52 | 33.99622 | -118.09613 | 3274 ft | 157 kts | 332° |
| 2026-05-04 02:52 | 34.00175 | -118.10682 | 3183 ft | 152 kts | 267° |
| 2026-05-04 02:52 | 33.99481 | -118.11402 | 3282 ft | 149 kts | 181° |
| 2026-05-04 02:52 | 33.98421 | -118.11247 | 3156 ft | 156 kts | 180° |
| 2026-05-04 02:53 | 33.97342 | -118.11374 | 3175 ft | 150 kts | 191° |
| 2026-05-04 02:53 | 33.96376 | -118.11744 | 3357 ft | 140 kts | 196° |
| 2026-05-04 02:53 | 33.95443 | -118.12053 | 3343 ft | 145 kts | 180° |
| 2026-05-04 02:53 | 33.94379 | -118.11758 | 2840 ft | 162 kts | 179° |
| 2026-05-04 02:54 | 33.93760 | -118.12614 | 2414 ft | 165 kts | 267° |
| 2026-05-04 02:54 | 33.93866 | -118.13897 | 2599 ft | 148 kts | 279° |
| 2026-05-04 02:54 | 33.94053 | -118.15109 | 2673 ft | 146 kts | 281° |
| 2026-05-04 02:54 | 33.94235 | -118.16290 | 2800 ft | 142 kts | 280° |
| 2026-05-04 02:55 | 33.94679 | -118.18598 | 3086 ft | 133 kts | 282° |
| 2026-05-04 02:55 | 33.94895 | -118.19683 | 3233 ft | 135 kts | 281° |
| 2026-05-04 02:55 | 33.95037 | -118.20805 | 3394 ft | 133 kts | 276° |
| 2026-05-04 02:56 | 33.95123 | -118.21926 | 3530 ft | 135 kts | 274° |
| 2026-05-04 02:56 | 33.95139 | -118.23097 | 3485 ft | 146 kts | 266° |
| 2026-05-04 02:56 | 33.95080 | -118.24302 | 3619 ft | 140 kts | 266° |
| 2026-05-04 02:56 | 33.94948 | -118.25523 | 3454 ft | 156 kts | 259° |
| 2026-05-04 02:57 | 33.94734 | -118.26828 | 3292 ft | 160 kts | 260° |
| 2026-05-04 02:57 | 33.94566 | -118.28135 | 3187 ft | 153 kts | 262° |
| 2026-05-04 02:57 | 33.94445 | -118.29345 | 2583 ft | 140 kts | 264° |
| 2026-05-04 02:57 | 33.94359 | -118.30482 | 2113 ft | 131 kts | 265° |
| 2026-05-04 02:58 | 33.94303 | -118.31490 | 1879 ft | 110 kts | 265° |
| 2026-05-04 02:58 | 33.94245 | -118.32362 | 1671 ft | 99 kts | 265° |
| 2026-05-04 02:58 | 33.94198 | -118.33239 | 1576 ft | 119 kts | 265° |
| 2026-05-04 02:58 | 33.94100 | -118.34376 | 1345 ft | 151 kts | 263° |
| 2026-05-04 02:59 | 33.94002 | -118.35557 | 1081 ft | 123 kts | 264° |
| 2026-05-04 02:59 | 33.93922 | -118.36472 | 694 ft | 97 kts | 263° |
| 2026-05-04 02:59 | 33.93861 | -118.37226 | 432 ft | 84 kts | 263° |
| 2026-05-04 02:59 | 33.93765 | -118.37918 | 291 ft | 83 kts | 264° |
| 2026-05-04 03:00 | 33.93706 | -118.38574 | 144 ft | 77 kts | 263° |
| 2026-05-04 03:00 | 33.93654 | -118.39130 | 121 ft | 57 kts | 263° |
| 2026-05-04 03:00 | 33.93602 | -118.39528 | 120 ft | 41 kts | 265° |
| 2026-05-04 03:00 | 33.93567 | -118.39833 | 120 ft | 32 kts | 258° |
| 2026-05-04 03:01 | 33.93527 | -118.40093 | 120 ft | 30 kts | 257° |
| 2026-05-04 03:01 | 33.93514 | -118.40167 | 120 ft | 1 kts | 258° |
| 2026-05-04 03:01 | 33.93473 | -118.40242 | 118 ft | 13 kts | 231° |
| 2026-05-04 03:01 | 33.93431 | -118.40298 | 119 ft | 7 kts | 225° |
| 2026-05-04 03:02 | 33.93413 | -118.40336 | 119 ft | 3 kts | 250° |
| 2026-05-04 03:02 | 33.93408 | -118.40353 | 120 ft | 0 kts | 249° |
| 2026-05-04 03:02 | 33.93407 | -118.40354 | 120 ft | 3 kts | 249° |
| 2026-05-04 03:02 | 33.93338 | -118.40339 | 120 ft | 11 kts | 169° |
| 2026-05-04 03:03 | 33.93326 | -118.40327 | 118 ft | 0 kts | 39° |